sensor_id;sensor_type;location;lat;lon;timestamp;pressure;altitude;pressure_sealevel;temperature;humidity
64211;BME280;50528;48.514;14.394;2023-03-01T00:00:32;94502.77;;;-2.51;70.43
64211;BME280;50528;48.514;14.394;2023-03-01T00:01:27;94507.08;;;-2.54;70.26
64211;BME280;50528;48.514;14.394;2023-03-01T00:02:02;94507.42;;;-2.54;70.38
64211;BME280;50528;48.514;14.394;2023-03-01T00:02:35;94510.19;;;-2.54;70.43
64211;BME280;50528;48.514;14.394;2023-03-01T00:03:10;94501.04;;;-2.59;70.45
64211;BME280;50528;48.514;14.394;2023-03-01T00:03:49;94503.84;;;-2.55;70.65
64211;BME280;50528;48.514;14.394;2023-03-01T00:04:23;94506.95;;;-2.55;70.59
64211;BME280;50528;48.514;14.394;2023-03-01T00:04:56;94506.91;;;-2.54;70.61
64211;BME280;50528;48.514;14.394;2023-03-01T00:05:30;94489.58;;;-2.63;70.48
64211;BME280;50528;48.514;14.394;2023-03-01T00:06:06;94503.27;;;-2.54;70.73
64211;BME280;50528;48.514;14.394;2023-03-01T00:06:42;94505.06;;;-2.53;70.54
64211;BME280;50528;48.514;14.394;2023-03-01T00:07:21;94507.10;;;-2.54;70.44
64211;BME280;50528;48.514;14.394;2023-03-01T00:07:55;94503.23;;;-2.55;70.55
64211;BME280;50528;48.514;14.394;2023-03-01T00:08:30;94502.85;;;-2.55;70.48
64211;BME280;50528;48.514;14.394;2023-03-01T00:09:06;94503.56;;;-2.52;70.46
64211;BME280;50528;48.514;14.394;2023-03-01T00:09:40;94502.36;;;-2.55;70.37
64211;BME280;50528;48.514;14.394;2023-03-01T00:10:16;94502.77;;;-2.56;70.26
64211;BME280;50528;48.514;14.394;2023-03-01T00:11:10;94502.15;;;-2.56;70.49
64211;BME280;50528;48.514;14.394;2023-03-01T00:11:45;94504.92;;;-2.57;70.30
64211;BME280;50528;48.514;14.394;2023-03-01T00:12:19;94500.44;;;-2.58;70.39
64211;BME280;50528;48.514;14.394;2023-03-01T00:12:53;94500.98;;;-2.57;70.45
64211;BME280;50528;48.514;14.394;2023-03-01T00:13:26;94498.88;;;-2.56;70.42
64211;BME280;50528;48.514;14.394;2023-03-01T00:14:02;94499.39;;;-2.54;70.30
64211;BME280;50528;48.514;14.394;2023-03-01T00:14:38;94498.63;;;-2.55;70.40
64211;BME280;50528;48.514;14.394;2023-03-01T00:15:11;94501.42;;;-2.56;70.31
64211;BME280;50528;48.514;14.394;2023-03-01T00:15:46;94499.60;;;-2.55;70.49
64211;BME280;50528;48.514;14.394;2023-03-01T00:16:22;94495.70;;;-2.55;70.31
64211;BME280;50528;48.514;14.394;2023-03-01T00:17:00;94495.30;;;-2.57;70.59
64211;BME280;50528;48.514;14.394;2023-03-01T00:17:35;94493.78;;;-2.60;70.49
64211;BME280;50528;48.514;14.394;2023-03-01T00:18:11;94489.77;;;-2.61;70.37
64211;BME280;50528;48.514;14.394;2023-03-01T00:18:44;94491.75;;;-2.60;70.47
64211;BME280;50528;48.514;14.394;2023-03-01T00:19:19;94495.30;;;-2.60;70.42
64211;BME280;50528;48.514;14.394;2023-03-01T00:19:53;94494.26;;;-2.58;70.36
64211;BME280;50528;48.514;14.394;2023-03-01T00:20:26;94492.89;;;-2.60;70.34
64211;BME280;50528;48.514;14.394;2023-03-01T00:21:00;94498.16;;;-2.59;70.39
64211;BME280;50528;48.514;14.394;2023-03-01T00:21:34;94493.62;;;-2.60;70.24
64211;BME280;50528;48.514;14.394;2023-03-01T00:22:08;94479.69;;;-2.70;70.30
64211;BME280;50528;48.514;14.394;2023-03-01T00:22:41;94496.46;;;-2.59;70.40
64211;BME280;50528;48.514;14.394;2023-03-01T00:23:19;94497.00;;;-2.60;70.47
64211;BME280;50528;48.514;14.394;2023-03-01T00:23:53;94495.20;;;-2.59;70.44
64211;BME280;50528;48.514;14.394;2023-03-01T00:24:30;94497.06;;;-2.60;70.50
64211;BME280;50528;48.514;14.394;2023-03-01T00:25:04;94501.23;;;-2.61;70.58
64211;BME280;50528;48.514;14.394;2023-03-01T00:25:42;94501.29;;;-2.61;70.44
64211;BME280;50528;48.514;14.394;2023-03-01T00:26:17;94492.88;;;-2.65;70.35
64211;BME280;50528;48.514;14.394;2023-03-01T00:26:54;94498.07;;;-2.62;70.29
64211;BME280;50528;48.514;14.394;2023-03-01T00:27:29;94500.70;;;-2.62;70.34
64211;BME280;50528;48.514;14.394;2023-03-01T00:28:05;94500.55;;;-2.65;70.32
64211;BME280;50528;48.514;14.394;2023-03-01T00:28:41;94500.05;;;-2.63;70.34
64211;BME280;50528;48.514;14.394;2023-03-01T00:29:16;94498.08;;;-2.62;70.52
64211;BME280;50528;48.514;14.394;2023-03-01T00:29:49;94498.83;;;-2.63;70.40
64211;BME280;50528;48.514;14.394;2023-03-01T00:30:24;94496.64;;;-2.63;70.31
64211;BME280;50528;48.514;14.394;2023-03-01T00:31:10;94498.42;;;-2.62;70.44
64211;BME280;50528;48.514;14.394;2023-03-01T00:31:44;94497.29;;;-2.63;70.47
64211;BME280;50528;48.514;14.394;2023-03-01T00:32:21;94492.17;;;-2.63;70.29
64211;BME280;50528;48.514;14.394;2023-03-01T00:32:54;94495.71;;;-2.63;70.49
64211;BME280;50528;48.514;14.394;2023-03-01T00:33:28;94488.90;;;-2.68;70.47
64211;BME280;50528;48.514;14.394;2023-03-01T00:34:04;94496.15;;;-2.63;70.44
64211;BME280;50528;48.514;14.394;2023-03-01T00:34:38;94495.71;;;-2.62;70.62
64211;BME280;50528;48.514;14.394;2023-03-01T00:35:11;94494.27;;;-2.63;70.42
64211;BME280;50528;48.514;14.394;2023-03-01T00:35:45;94494.36;;;-2.63;70.52
64211;BME280;50528;48.514;14.394;2023-03-01T00:36:19;94492.93;;;-2.61;70.44
64211;BME280;50528;48.514;14.394;2023-03-01T00:36:53;94496.00;;;-2.60;70.32
64211;BME280;50528;48.514;14.394;2023-03-01T00:37:27;94482.20;;;-2.70;70.29
64211;BME280;50528;48.514;14.394;2023-03-01T00:38:02;94491.81;;;-2.66;70.20
64211;BME280;50528;48.514;14.394;2023-03-01T00:38:38;94492.27;;;-2.67;70.30
64211;BME280;50528;48.514;14.394;2023-03-01T00:39:14;94491.06;;;-2.69;70.31
64211;BME280;50528;48.514;14.394;2023-03-01T00:39:48;94491.09;;;-2.69;70.36
64211;BME280;50528;48.514;14.394;2023-03-01T00:40:25;94489.41;;;-2.70;70.45
64211;BME280;50528;48.514;14.394;2023-03-01T00:41:10;94492.42;;;-2.69;70.46
64211;BME280;50528;48.514;14.394;2023-03-01T00:41:47;94492.17;;;-2.70;70.35
64211;BME280;50528;48.514;14.394;2023-03-01T00:42:27;94492.99;;;-2.71;70.55
64211;BME280;50528;48.514;14.394;2023-03-01T00:43:01;94490.61;;;-2.71;70.32
64211;BME280;50528;48.514;14.394;2023-03-01T00:43:35;94490.82;;;-2.70;70.36
64211;BME280;50528;48.514;14.394;2023-03-01T00:44:11;94490.39;;;-2.69;70.38
64211;BME280;50528;48.514;14.394;2023-03-01T00:44:44;94491.85;;;-2.68;70.48
64211;BME280;50528;48.514;14.394;2023-03-01T00:45:18;94494.30;;;-2.69;70.30
64211;BME280;50528;48.514;14.394;2023-03-01T00:45:52;94490.52;;;-2.67;70.35
64211;BME280;50528;48.514;14.394;2023-03-01T00:46:27;94493.59;;;-2.65;70.47
64211;BME280;50528;48.514;14.394;2023-03-01T00:47:01;94486.98;;;-2.66;70.41
64211;BME280;50528;48.514;14.394;2023-03-01T00:47:35;94484.98;;;-2.66;70.43
64211;BME280;50528;48.514;14.394;2023-03-01T00:48:08;94483.55;;;-2.64;70.38
64211;BME280;50528;48.514;14.394;2023-03-01T00:48:42;94483.90;;;-2.63;70.34
64211;BME280;50528;48.514;14.394;2023-03-01T00:49:16;94483.53;;;-2.62;70.52
64211;BME280;50528;48.514;14.394;2023-03-01T00:49:49;94478.95;;;-2.63;70.23
64211;BME280;50528;48.514;14.394;2023-03-01T00:50:24;94481.61;;;-2.62;70.18
64211;BME280;50528;48.514;14.394;2023-03-01T00:51:40;94477.77;;;-2.63;70.16
64211;BME280;50528;48.514;14.394;2023-03-01T00:52:16;94474.77;;;-2.64;70.18
64211;BME280;50528;48.514;14.394;2023-03-01T00:52:54;94475.26;;;-2.65;69.99
64211;BME280;50528;48.514;14.394;2023-03-01T00:53:28;94474.92;;;-2.64;69.89
64211;BME280;50528;48.514;14.394;2023-03-01T00:54:02;94472.80;;;-2.66;69.90
64211;BME280;50528;48.514;14.394;2023-03-01T00:54:36;94470.34;;;-2.68;69.82
64211;BME280;50528;48.514;14.394;2023-03-01T00:55:10;94473.42;;;-2.67;69.87
64211;BME280;50528;48.514;14.394;2023-03-01T00:55:47;94471.70;;;-2.67;69.83
64211;BME280;50528;48.514;14.394;2023-03-01T00:56:22;94468.94;;;-2.69;69.73
64211;BME280;50528;48.514;14.394;2023-03-01T00:57:02;94471.83;;;-2.72;69.77
64211;BME280;50528;48.514;14.394;2023-03-01T00:57:35;94473.12;;;-2.75;69.87
64211;BME280;50528;48.514;14.394;2023-03-01T00:58:09;94471.66;;;-2.76;69.79
64211;BME280;50528;48.514;14.394;2023-03-01T00:58:43;94467.33;;;-2.75;69.95
64211;BME280;50528;48.514;14.394;2023-03-01T00:59:20;94467.77;;;-2.71;69.83
64211;BME280;50528;48.514;14.394;2023-03-01T00:59:53;94467.04;;;-2.76;69.60
64211;BME280;50528;48.514;14.394;2023-03-01T01:00:27;94469.23;;;-2.79;69.61
64211;BME280;50528;48.514;14.394;2023-03-01T01:01:07;94468.83;;;-2.78;69.73
64211;BME280;50528;48.514;14.394;2023-03-01T01:01:50;94465.32;;;-2.82;69.65
64211;BME280;50528;48.514;14.394;2023-03-01T01:02:23;94466.02;;;-2.84;69.82
64211;BME280;50528;48.514;14.394;2023-03-01T01:02:57;94467.27;;;-2.85;69.80
64211;BME280;50528;48.514;14.394;2023-03-01T01:03:30;94465.40;;;-2.85;69.86
64211;BME280;50528;48.514;14.394;2023-03-01T01:04:08;94465.34;;;-2.84;69.99
64211;BME280;50528;48.514;14.394;2023-03-01T01:04:42;94463.98;;;-2.84;70.13
64211;BME280;50528;48.514;14.394;2023-03-01T01:05:16;94467.51;;;-2.84;69.89
64211;BME280;50528;48.514;14.394;2023-03-01T01:05:54;94466.56;;;-2.84;70.03
64211;BME280;50528;48.514;14.394;2023-03-01T01:06:36;94465.64;;;-2.84;69.84
64211;BME280;50528;48.514;14.394;2023-03-01T01:07:14;94463.79;;;-2.88;69.83
64211;BME280;50528;48.514;14.394;2023-03-01T01:07:47;94464.38;;;-2.92;69.86
64211;BME280;50528;48.514;14.394;2023-03-01T01:08:21;94460.75;;;-2.96;69.96
64211;BME280;50528;48.514;14.394;2023-03-01T01:08:58;94461.11;;;-2.87;70.00
64211;BME280;50528;48.514;14.394;2023-03-01T01:09:32;94460.23;;;-2.88;69.97
64211;BME280;50528;48.514;14.394;2023-03-01T01:10:07;94459.43;;;-2.91;69.97
64211;BME280;50528;48.514;14.394;2023-03-01T01:10:44;94462.64;;;-2.97;69.90
64211;BME280;50528;48.514;14.394;2023-03-01T01:11:22;94445.71;;;-3.12;69.91
64211;BME280;50528;48.514;14.394;2023-03-01T01:11:56;94458.14;;;-3.07;70.14
64211;BME280;50528;48.514;14.394;2023-03-01T01:12:32;94460.04;;;-3.09;70.09
64211;BME280;50528;48.514;14.394;2023-03-01T01:13:09;94455.64;;;-3.12;70.09
64211;BME280;50528;48.514;14.394;2023-03-01T01:13:49;94459.88;;;-3.17;70.29
64211;BME280;50528;48.514;14.394;2023-03-01T01:14:23;94462.70;;;-3.19;70.23
64211;BME280;50528;48.514;14.394;2023-03-01T01:14:56;94461.25;;;-3.18;70.33
64211;BME280;50528;48.514;14.394;2023-03-01T01:15:33;94458.08;;;-3.19;70.28
64211;BME280;50528;48.514;14.394;2023-03-01T01:16:08;94461.77;;;-3.20;70.39
64211;BME280;50528;48.514;14.394;2023-03-01T01:16:42;94462.43;;;-3.20;70.49
64211;BME280;50528;48.514;14.394;2023-03-01T01:17:15;94460.45;;;-3.19;70.45
64211;BME280;50528;48.514;14.394;2023-03-01T01:17:49;94459.74;;;-3.17;70.48
64211;BME280;50528;48.514;14.394;2023-03-01T01:18:22;94458.17;;;-3.17;70.40
64211;BME280;50528;48.514;14.394;2023-03-01T01:18:58;94456.48;;;-3.15;70.38
64211;BME280;50528;48.514;14.394;2023-03-01T01:19:33;94457.70;;;-3.13;70.53
64211;BME280;50528;48.514;14.394;2023-03-01T01:20:07;94458.31;;;-3.13;70.36
64211;BME280;50528;48.514;14.394;2023-03-01T01:20:45;94455.64;;;-3.15;70.46
64211;BME280;50528;48.514;14.394;2023-03-01T01:21:23;94455.44;;;-3.15;70.25
64211;BME280;50528;48.514;14.394;2023-03-01T01:22:12;94457.67;;;-3.20;70.41
64211;BME280;50528;48.514;14.394;2023-03-01T01:22:49;94458.02;;;-3.20;70.29
64211;BME280;50528;48.514;14.394;2023-03-01T01:23:23;94458.11;;;-3.21;70.43
64211;BME280;50528;48.514;14.394;2023-03-01T01:24:00;94456.77;;;-3.21;70.48
64211;BME280;50528;48.514;14.394;2023-03-01T01:24:33;94454.56;;;-3.20;70.30
64211;BME280;50528;48.514;14.394;2023-03-01T01:25:08;94454.98;;;-3.22;70.19
64211;BME280;50528;48.514;14.394;2023-03-01T01:25:41;94453.05;;;-3.24;70.26
64211;BME280;50528;48.514;14.394;2023-03-01T01:26:31;94451.89;;;-3.22;70.31
64211;BME280;50528;48.514;14.394;2023-03-01T01:27:05;94451.13;;;-3.23;70.38
64211;BME280;50528;48.514;14.394;2023-03-01T01:27:45;94449.23;;;-3.24;70.44
64211;BME280;50528;48.514;14.394;2023-03-01T01:28:21;94450.19;;;-3.24;70.44
64211;BME280;50528;48.514;14.394;2023-03-01T01:28:55;94435.08;;;-3.33;70.62
64211;BME280;50528;48.514;14.394;2023-03-01T01:29:29;94445.41;;;-3.25;70.46
64211;BME280;50528;48.514;14.394;2023-03-01T01:30:03;94448.55;;;-3.23;70.36
64211;BME280;50528;48.514;14.394;2023-03-01T01:30:37;94449.16;;;-3.22;70.59
64211;BME280;50528;48.514;14.394;2023-03-01T01:31:10;94447.03;;;-3.23;70.56
64211;BME280;50528;48.514;14.394;2023-03-01T01:31:44;94448.38;;;-3.23;70.52
64211;BME280;50528;48.514;14.394;2023-03-01T01:32:25;94450.82;;;-3.25;70.72
64211;BME280;50528;48.514;14.394;2023-03-01T01:32:59;94448.23;;;-3.29;70.75
64211;BME280;50528;48.514;14.394;2023-03-01T01:33:33;94450.17;;;-3.28;70.67
64211;BME280;50528;48.514;14.394;2023-03-01T01:34:08;94450.96;;;-3.27;70.64
64211;BME280;50528;48.514;14.394;2023-03-01T01:34:51;94450.42;;;-3.28;70.51
64211;BME280;50528;48.514;14.394;2023-03-01T01:35:24;94449.94;;;-3.29;70.82
64211;BME280;50528;48.514;14.394;2023-03-01T01:36:01;94447.63;;;-3.28;70.74
64211;BME280;50528;48.514;14.394;2023-03-01T01:36:35;94451.52;;;-3.25;70.73
64211;BME280;50528;48.514;14.394;2023-03-01T01:37:09;94450.20;;;-3.24;70.82
64211;BME280;50528;48.514;14.394;2023-03-01T01:37:43;94451.25;;;-3.23;70.74
64211;BME280;50528;48.514;14.394;2023-03-01T01:38:17;94451.27;;;-3.23;70.75
64211;BME280;50528;48.514;14.394;2023-03-01T01:38:50;94445.02;;;-3.26;70.79
64211;BME280;50528;48.514;14.394;2023-03-01T01:39:27;94448.00;;;-3.21;70.86
64211;BME280;50528;48.514;14.394;2023-03-01T01:40:01;94445.99;;;-3.20;70.83
64211;BME280;50528;48.514;14.394;2023-03-01T01:40:43;94442.67;;;-3.21;70.77
64211;BME280;50528;48.514;14.394;2023-03-01T01:41:18;94430.46;;;-3.31;70.97
64211;BME280;50528;48.514;14.394;2023-03-01T01:41:55;94442.46;;;-3.22;70.92
64211;BME280;50528;48.514;14.394;2023-03-01T01:42:28;94438.79;;;-3.22;70.95
64211;BME280;50528;48.514;14.394;2023-03-01T01:43:02;94436.60;;;-3.20;70.96
64211;BME280;50528;48.514;14.394;2023-03-01T01:43:39;94434.84;;;-3.18;70.93
64211;BME280;50528;48.514;14.394;2023-03-01T01:47:05;94434.84;;;-3.26;71.15
64211;BME280;50528;48.514;14.394;2023-03-01T01:47:40;94434.98;;;-3.28;71.01
64211;BME280;50528;48.514;14.394;2023-03-01T01:48:19;94431.89;;;-3.28;70.94
64211;BME280;50528;48.514;14.394;2023-03-01T01:49:01;94430.59;;;-3.27;70.88
64211;BME280;50528;48.514;14.394;2023-03-01T01:49:46;94431.64;;;-3.25;71.05
64211;BME280;50528;48.514;14.394;2023-03-01T01:50:21;94429.00;;;-3.26;71.24
64211;BME280;50528;48.514;14.394;2023-03-01T01:51:00;94426.79;;;-3.28;71.28
64211;BME280;50528;48.514;14.394;2023-03-01T01:51:37;94414.33;;;-3.36;71.13
64211;BME280;50528;48.514;14.394;2023-03-01T01:52:24;94423.74;;;-3.27;71.28
64211;BME280;50528;48.514;14.394;2023-03-01T01:52:58;94425.13;;;-3.27;71.38
64211;BME280;50528;48.514;14.394;2023-03-01T01:53:32;94426.67;;;-3.27;71.19
64211;BME280;50528;48.514;14.394;2023-03-01T01:54:16;94429.35;;;-3.26;71.39
64211;BME280;50528;48.514;14.394;2023-03-01T01:55:33;94429.45;;;-3.29;71.29
64211;BME280;50528;48.514;14.394;2023-03-01T01:56:14;94428.43;;;-3.29;71.31
64211;BME280;50528;48.514;14.394;2023-03-01T01:56:56;94430.24;;;-3.27;71.32
64211;BME280;50528;48.514;14.394;2023-03-01T01:57:34;94427.58;;;-3.31;71.39
64211;BME280;50528;48.514;14.394;2023-03-01T01:58:11;94429.29;;;-3.37;71.80
64211;BME280;50528;48.514;14.394;2023-03-01T01:58:47;94430.36;;;-3.39;71.52
64211;BME280;50528;48.514;14.394;2023-03-01T01:59:21;94431.52;;;-3.38;71.62
64211;BME280;50528;48.514;14.394;2023-03-01T02:00:00;94430.50;;;-3.39;71.54
64211;BME280;50528;48.514;14.394;2023-03-01T02:00:45;94428.86;;;-3.39;71.57
64211;BME280;50528;48.514;14.394;2023-03-01T02:01:20;94425.88;;;-3.39;71.47
64211;BME280;50528;48.514;14.394;2023-03-01T02:01:55;94425.11;;;-3.38;71.51
64211;BME280;50528;48.514;14.394;2023-03-01T02:02:32;94421.83;;;-3.35;71.66
64211;BME280;50528;48.514;14.394;2023-03-01T02:03:12;94422.08;;;-3.36;71.78
64211;BME280;50528;48.514;14.394;2023-03-01T02:03:47;94422.78;;;-3.36;71.67
64211;BME280;50528;48.514;14.394;2023-03-01T02:04:22;94412.61;;;-3.39;71.52
64211;BME280;50528;48.514;14.394;2023-03-01T02:05:11;94418.98;;;-3.36;71.92
64211;BME280;50528;48.514;14.394;2023-03-01T02:06:04;94415.19;;;-3.38;71.69
64211;BME280;50528;48.514;14.394;2023-03-01T02:06:46;94418.58;;;-3.39;72.04
64211;BME280;50528;48.514;14.394;2023-03-01T02:07:27;94417.41;;;-3.41;71.89
64211;BME280;50528;48.514;14.394;2023-03-01T02:08:01;94415.58;;;-3.40;71.82
64211;BME280;50528;48.514;14.394;2023-03-01T02:08:38;94415.84;;;-3.39;71.78
64211;BME280;50528;48.514;14.394;2023-03-01T02:09:14;94415.11;;;-3.42;71.96
64211;BME280;50528;48.514;14.394;2023-03-01T02:09:50;94414.90;;;-3.40;71.93
64211;BME280;50528;48.514;14.394;2023-03-01T02:10:26;94418.17;;;-3.41;71.90
64211;BME280;50528;48.514;14.394;2023-03-01T02:11:02;94414.84;;;-3.40;72.01
64211;BME280;50528;48.514;14.394;2023-03-01T02:11:37;94415.63;;;-3.39;72.16
64211;BME280;50528;48.514;14.394;2023-03-01T02:12:25;94413.61;;;-3.41;72.03
64211;BME280;50528;48.514;14.394;2023-03-01T02:13:01;94414.52;;;-3.43;71.94
64211;BME280;50528;48.514;14.394;2023-03-01T02:13:36;94416.73;;;-3.43;71.96
64211;BME280;50528;48.514;14.394;2023-03-01T02:14:10;94421.45;;;-3.42;72.11
64211;BME280;50528;48.514;14.394;2023-03-01T02:14:48;94418.02;;;-3.40;72.21
64211;BME280;50528;48.514;14.394;2023-03-01T02:15:23;94420.40;;;-3.40;72.16
64211;BME280;50528;48.514;14.394;2023-03-01T02:16:14;94425.20;;;-3.46;72.13
64211;BME280;50528;48.514;14.394;2023-03-01T02:16:48;94422.94;;;-3.47;72.04
64211;BME280;50528;48.514;14.394;2023-03-01T02:17:22;94423.41;;;-3.45;72.25
64211;BME280;50528;48.514;14.394;2023-03-01T02:17:59;94423.36;;;-3.46;72.21
64211;BME280;50528;48.514;14.394;2023-03-01T02:18:32;94416.16;;;-3.51;72.51
64211;BME280;50528;48.514;14.394;2023-03-01T02:19:12;94422.77;;;-3.49;72.42
64211;BME280;50528;48.514;14.394;2023-03-01T02:22:54;94420.24;;;-3.51;72.49
64211;BME280;50528;48.514;14.394;2023-03-01T02:23:28;94415.51;;;-3.52;72.44
64211;BME280;50528;48.514;14.394;2023-03-01T02:26:13;94412.99;;;-3.52;72.47
64211;BME280;50528;48.514;14.394;2023-03-01T02:26:57;94420.08;;;-3.51;72.30
64211;BME280;50528;48.514;14.394;2023-03-01T02:27:38;94413.34;;;-3.49;72.46
64211;BME280;50528;48.514;14.394;2023-03-01T02:28:51;94411.58;;;-3.48;72.31
64211;BME280;50528;48.514;14.394;2023-03-01T02:29:28;94403.53;;;-3.55;72.30
64211;BME280;50528;48.514;14.394;2023-03-01T02:30:05;94418.27;;;-3.47;72.34
64211;BME280;50528;48.514;14.394;2023-03-01T02:30:40;94416.65;;;-3.46;72.44
64211;BME280;50528;48.514;14.394;2023-03-01T02:31:34;94416.65;;;-3.46;72.33
64211;BME280;50528;48.514;14.394;2023-03-01T02:32:18;94415.87;;;-3.47;72.66
64211;BME280;50528;48.514;14.394;2023-03-01T02:33:04;94414.75;;;-3.46;72.41
64211;BME280;50528;48.514;14.394;2023-03-01T02:33:38;94418.77;;;-3.45;72.37
64211;BME280;50528;48.514;14.394;2023-03-01T02:34:15;94415.48;;;-3.42;72.37
64211;BME280;50528;48.514;14.394;2023-03-01T02:34:55;94418.02;;;-3.44;72.32
64211;BME280;50528;48.514;14.394;2023-03-01T02:35:32;94418.27;;;-3.45;72.31
64211;BME280;50528;48.514;14.394;2023-03-01T02:36:11;94416.67;;;-3.44;72.58
64211;BME280;50528;48.514;14.394;2023-03-01T02:37:13;94420.09;;;-3.46;72.42
64211;BME280;50528;48.514;14.394;2023-03-01T02:37:50;94419.60;;;-3.48;72.45
64211;BME280;50528;48.514;14.394;2023-03-01T02:38:24;94419.83;;;-3.48;72.51
64211;BME280;50528;48.514;14.394;2023-03-01T02:38:59;94418.89;;;-3.48;72.45
64211;BME280;50528;48.514;14.394;2023-03-01T02:39:42;94417.09;;;-3.47;72.47
64211;BME280;50528;48.514;14.394;2023-03-01T02:40:18;94416.76;;;-3.50;72.38
64211;BME280;50528;48.514;14.394;2023-03-01T02:40:58;94418.23;;;-3.49;72.49
64211;BME280;50528;48.514;14.394;2023-03-01T02:41:38;94420.16;;;-3.50;72.52
64211;BME280;50528;48.514;14.394;2023-03-01T02:42:17;94421.37;;;-3.50;72.53
64211;BME280;50528;48.514;14.394;2023-03-01T02:42:56;94420.45;;;-3.52;72.64
64211;BME280;50528;48.514;14.394;2023-03-01T02:43:32;94418.42;;;-3.53;72.73
64211;BME280;50528;48.514;14.394;2023-03-01T02:44:06;94419.97;;;-3.52;72.37
64211;BME280;50528;48.514;14.394;2023-03-01T02:44:43;94419.40;;;-3.51;72.59
64211;BME280;50528;48.514;14.394;2023-03-01T02:45:18;94419.86;;;-3.51;72.54
64211;BME280;50528;48.514;14.394;2023-03-01T02:45:53;94418.86;;;-3.51;72.44
64211;BME280;50528;48.514;14.394;2023-03-01T02:46:30;94418.51;;;-3.51;72.47
64211;BME280;50528;48.514;14.394;2023-03-01T02:47:04;94417.73;;;-3.50;72.63
64211;BME280;50528;48.514;14.394;2023-03-01T02:47:39;94414.71;;;-3.49;72.47
64211;BME280;50528;48.514;14.394;2023-03-01T02:48:12;94412.64;;;-3.50;72.64
64211;BME280;50528;48.514;14.394;2023-03-01T02:48:49;94413.79;;;-3.48;72.54
64211;BME280;50528;48.514;14.394;2023-03-01T02:53:01;94415.52;;;-3.69;72.46
64211;BME280;50528;48.514;14.394;2023-03-01T02:54:48;94405.92;;;-3.75;72.46
64211;BME280;50528;48.514;14.394;2023-03-01T02:55:23;94406.20;;;-3.76;72.50
64211;BME280;50528;48.514;14.394;2023-03-01T02:55:57;94406.59;;;-3.76;72.62
64211;BME280;50528;48.514;14.394;2023-03-01T02:56:34;94406.98;;;-3.75;72.87
64211;BME280;50528;48.514;14.394;2023-03-01T02:57:18;94401.70;;;-3.77;73.06
64211;BME280;50528;48.514;14.394;2023-03-01T02:57:53;94408.67;;;-3.77;72.87
64211;BME280;50528;48.514;14.394;2023-03-01T02:58:29;94405.27;;;-3.75;72.87
64211;BME280;50528;48.514;14.394;2023-03-01T02:59:03;94406.08;;;-3.73;73.02
64211;BME280;50528;48.514;14.394;2023-03-01T02:59:38;94401.02;;;-3.74;73.22
64211;BME280;50528;48.514;14.394;2023-03-01T03:00:17;94401.48;;;-3.73;73.20
64211;BME280;50528;48.514;14.394;2023-03-01T03:00:55;94401.23;;;-3.72;73.37
64211;BME280;50528;48.514;14.394;2023-03-01T03:01:30;94403.01;;;-3.72;73.46
64211;BME280;50528;48.514;14.394;2023-03-01T03:03:21;94403.70;;;-3.75;73.31
64211;BME280;50528;48.514;14.394;2023-03-01T03:03:55;94403.92;;;-3.76;73.51
64211;BME280;50528;48.514;14.394;2023-03-01T03:04:28;94401.70;;;-3.74;73.44
64211;BME280;50528;48.514;14.394;2023-03-01T03:05:23;94405.20;;;-3.73;73.57
64211;BME280;50528;48.514;14.394;2023-03-01T03:05:59;94407.22;;;-3.74;73.50
64211;BME280;50528;48.514;14.394;2023-03-01T03:06:33;94404.25;;;-3.75;73.99
64211;BME280;50528;48.514;14.394;2023-03-01T03:07:07;94407.20;;;-3.76;73.81
64211;BME280;50528;48.514;14.394;2023-03-01T03:07:43;94406.88;;;-3.76;73.74
64211;BME280;50528;48.514;14.394;2023-03-01T03:08:17;94409.00;;;-3.75;73.83
64211;BME280;50528;48.514;14.394;2023-03-01T03:08:57;94405.14;;;-3.76;73.82
64211;BME280;50528;48.514;14.394;2023-03-01T03:09:31;94407.23;;;-3.76;73.75
64211;BME280;50528;48.514;14.394;2023-03-01T03:10:13;94406.52;;;-3.76;73.76
64211;BME280;50528;48.514;14.394;2023-03-01T03:10:47;94402.21;;;-3.77;73.93
64211;BME280;50528;48.514;14.394;2023-03-01T03:11:21;94402.23;;;-3.74;73.86
64211;BME280;50528;48.514;14.394;2023-03-01T03:11:54;94405.56;;;-3.73;74.11
64211;BME280;50528;48.514;14.394;2023-03-01T03:12:28;94402.73;;;-3.72;73.95
64211;BME280;50528;48.514;14.394;2023-03-01T03:13:04;94402.02;;;-3.72;73.77
64211;BME280;50528;48.514;14.394;2023-03-01T03:13:38;94402.40;;;-3.72;73.93
64211;BME280;50528;48.514;14.394;2023-03-01T03:14:21;94407.46;;;-3.75;73.90
64211;BME280;50528;48.514;14.394;2023-03-01T03:14:55;94403.60;;;-3.76;74.04
64211;BME280;50528;48.514;14.394;2023-03-01T03:15:29;94403.56;;;-3.74;74.07
64211;BME280;50528;48.514;14.394;2023-03-01T03:16:03;94401.11;;;-3.73;73.97
64211;BME280;50528;48.514;14.394;2023-03-01T03:16:37;94402.05;;;-3.72;73.85
64211;BME280;50528;48.514;14.394;2023-03-01T03:17:10;94398.16;;;-3.71;73.75
64211;BME280;50528;48.514;14.394;2023-03-01T03:17:47;94398.08;;;-3.70;73.93
64211;BME280;50528;48.514;14.394;2023-03-01T03:18:22;94393.72;;;-3.69;73.95
64211;BME280;50528;48.514;14.394;2023-03-01T03:18:58;94396.80;;;-3.65;73.77
64211;BME280;50528;48.514;14.394;2023-03-01T03:19:38;94401.52;;;-3.64;73.89
64211;BME280;50528;48.514;14.394;2023-03-01T03:20:13;94396.84;;;-3.68;73.83
64211;BME280;50528;48.514;14.394;2023-03-01T03:20:52;94397.30;;;-3.69;73.79
64211;BME280;50528;48.514;14.394;2023-03-01T03:21:26;94397.27;;;-3.68;73.77
64211;BME280;50528;48.514;14.394;2023-03-01T03:22:04;94378.34;;;-3.83;73.76
64211;BME280;50528;48.514;14.394;2023-03-01T03:22:41;94397.80;;;-3.68;73.87
64211;BME280;50528;48.514;14.394;2023-03-01T03:23:16;94398.66;;;-3.67;73.78
64211;BME280;50528;48.514;14.394;2023-03-01T03:23:50;94394.86;;;-3.68;73.83
64211;BME280;50528;48.514;14.394;2023-03-01T03:24:24;94397.70;;;-3.64;73.86
64211;BME280;50528;48.514;14.394;2023-03-01T03:24:58;94393.42;;;-3.64;73.89
64211;BME280;50528;48.514;14.394;2023-03-01T03:25:31;94394.64;;;-3.62;73.85
64211;BME280;50528;48.514;14.394;2023-03-01T03:26:11;94392.56;;;-3.62;73.88
64211;BME280;50528;48.514;14.394;2023-03-01T03:26:46;94391.61;;;-3.63;73.89
64211;BME280;50528;48.514;14.394;2023-03-01T03:27:20;94395.11;;;-3.63;73.95